Time;durP1;ratioP1;P1;durP2;ratioP2;P2;SDS_P1;SDS_P2;PMS_P1;PMS_P2;Temp;Humidity;BMP_temperature;BMP_pressure;BME280_temperature;BME280_humidity;BME280_pressure;Samples;Min_cycle;Max_cycle;Signal;HPM_P1;HPM_P2
2022/04/15 00:01:13;;;;;;;4.80;2.10;;;9.20;99.90;;;;;;4987960;28;20029;-63
2022/04/15 00:03:39;;;;;;;6.75;2.60;;;9.10;99.90;;;;;;4988649;28;20379;-63
2022/04/15 00:06:09;;;;;;;8.45;2.20;;;9.10;99.90;;;;;;4987953;28;20110;-64
2022/04/15 00:08:35;;;;;;;6.60;2.33;;;9.00;99.90;;;;;;4987009;28;20201;-64
2022/04/15 00:11:02;;;;;;;7.05;2.50;;;8.90;99.90;;;;;;4986024;28;20482;-64
2022/04/15 00:13:29;;;;;;;7.03;2.65;;;8.90;99.90;;;;;;5014730;28;20022;-64
2022/04/15 00:15:59;;;;;;;6.70;2.42;;;8.80;99.90;;;;;;4983912;28;20022;-64
2022/04/15 00:18:26;;;;;;;9.38;2.95;;;8.90;99.90;;;;;;4985505;28;20105;-64
2022/04/15 00:20:52;;;;;;;6.07;2.25;;;9.00;99.90;;;;;;4981942;28;20043;-63
2022/04/15 00:23:21;;;;;;;5.68;2.25;;;8.80;99.90;;;;;;4987029;28;20065;-63
2022/04/15 00:25:46;;;;;;;7.80;2.45;;;8.70;99.90;;;;;;4986759;28;20033;-63
2022/04/15 00:28:12;;;;;;;8.02;2.63;;;8.60;99.90;;;;;;4985423;28;20529;-63
2022/04/15 00:30:38;;;;;;;9.65;3.30;;;8.50;99.90;;;;;;5004784;28;20050;-64
2022/04/15 00:33:03;;;;;;;6.35;2.45;;;8.60;99.90;;;;;;4990460;28;20488;-64
2022/04/15 00:35:29;;;;;;;7.50;2.35;;;8.50;99.90;;;;;;4985557;28;20114;-63
2022/04/15 00:37:54;;;;;;;6.22;2.17;;;8.40;99.90;;;;;;4990518;28;20026;-63
2022/04/15 00:40:20;;;;;;;11.93;3.45;;;8.30;99.90;;;;;;4984982;28;20031;-63
2022/04/15 00:42:46;;;;;;;5.97;1.90;;;8.20;99.90;;;;;;4988081;28;20031;-63
2022/04/15 00:45:11;;;;;;;9.43;3.22;;;8.30;99.90;;;;;;4990787;28;20470;-63
2022/04/15 00:47:44;;;;;;;9.57;3.17;;;8.30;99.90;;;;;;4988496;28;20026;-63
2022/04/15 00:50:10;;;;;;;8.95;3.05;;;8.40;99.90;;;;;;4986963;28;20069;-63
2022/04/15 00:52:40;;;;;;;10.65;3.33;;;8.30;99.90;;;;;;4988408;28;20030;-63
2022/04/15 00:55:06;;;;;;;14.53;3.23;;;8.10;99.90;;;;;;4990615;28;20034;-63
2022/04/15 00:57:33;;;;;;;8.55;3.05;;;8.10;99.90;;;;;;4986797;28;20505;-63
2022/04/15 01:00:01;;;;;;;9.20;3.20;;;8.00;99.90;;;;;;4990118;28;20482;-64
2022/04/15 01:02:28;;;;;;;5.88;2.47;;;7.90;99.90;;;;;;4985077;28;20054;-64
2022/04/15 01:04:56;;;;;;;9.18;3.08;;;7.90;99.90;;;;;;4987537;28;20398;-64
2022/04/15 01:07:26;;;;;;;12.52;3.78;;;7.90;99.90;;;;;;4988215;28;20023;-64
2022/04/15 01:09:52;;;;;;;;;;;7.90;99.90;;;;;;4990857;28;20065;-65
2022/04/15 01:12:21;;;;;;;7.07;3.03;;;7.90;99.90;;;;;;4986689;28;19906;-63
2022/04/15 01:14:48;;;;;;;5.47;2.25;;;7.80;99.90;;;;;;4990115;28;20038;-63
2022/04/15 01:17:13;;;;;;;8.27;3.10;;;7.90;99.90;;;;;;4992604;28;20061;-63
2022/04/15 01:19:39;;;;;;;7.20;2.58;;;8.10;99.90;;;;;;4991424;28;20034;-63
2022/04/15 01:22:13;;;;;;;8.80;2.83;;;8.00;99.90;;;;;;4992066;28;20501;-63
2022/04/15 01:24:38;;;;;;;8.82;2.83;;;7.90;99.90;;;;;;4993291;28;20109;-64
2022/04/15 01:27:08;;;;;;;9.38;2.65;;;7.80;99.90;;;;;;4985818;28;20122;-64
2022/04/15 01:29:40;;;;;;;12.27;3.13;;;7.70;99.90;;;;;;4990203;28;20045;-64
2022/04/15 01:32:07;;;;;;;9.48;2.80;;;7.60;99.90;;;;;;4992919;28;20036;-64
2022/04/15 01:34:34;;;;;;;6.35;3.13;;;7.70;99.90;;;;;;4994041;28;20022;-63
2022/04/15 01:37:00;;;;;;;7.88;3.13;;;7.80;99.90;;;;;;4993263;28;20386;-63
2022/04/15 01:39:31;;;;;;;12.35;3.50;;;7.70;99.90;;;;;;4988114;28;20003;-63
2022/04/15 01:41:57;;;;;;;10.38;3.63;;;7.70;99.90;;;;;;4992859;28;20117;-63
2022/04/15 01:44:23;;;;;;;9.50;3.25;;;7.70;99.90;;;;;;4994181;28;20094;-64
2022/04/15 01:46:49;;;;;;;6.43;2.90;;;7.70;99.90;;;;;;4992973;28;20589;-63
2022/04/15 01:49:15;;;;;;;11.95;3.78;;;7.60;99.90;;;;;;4994081;28;20065;-63
2022/04/15 01:51:40;;;;;;;14.68;3.78;;;7.60;99.90;;;;;;4993732;28;20111;-63
2022/04/15 01:54:06;;;;;;;9.65;3.80;;;7.60;99.90;;;;;;4993285;28;20025;-63
2022/04/15 01:56:32;;;;;;;10.90;3.92;;;7.50;99.90;;;;;;4991824;28;20018;-63
2022/04/15 01:58:57;;;;;;;9.15;3.65;;;7.50;99.90;;;;;;4992561;28;20105;-63
2022/04/15 02:01:23;;;;;;;16.25;4.75;;;7.60;99.90;;;;;;4983922;28;20042;-63
2022/04/15 02:03:48;;;;;;;10.35;3.85;;;7.50;99.90;;;;;;4992409;28;20041;-63
2022/04/15 02:06:15;;;;;;;9.10;3.55;;;7.50;99.90;;;;;;4993383;28;20101;-63
2022/04/15 02:08:40;;;;;;;8.88;3.60;;;7.50;99.90;;;;;;4993560;28;20046;-63
2022/04/15 02:11:06;;;;;;;7.43;3.05;;;7.50;99.90;;;;;;4989030;28;20025;-64
2022/04/15 02:13:32;;;;;;;11.77;3.42;;;7.50;99.90;;;;;;4982515;28;20023;-64
2022/04/15 02:15:58;;;;;;;9.20;3.78;;;7.50;99.90;;;;;;4992758;28;20018;-64
2022/04/15 02:18:26;;;;;;;8.20;3.15;;;7.40;99.90;;;;;;4988700;28;20076;-64
2022/04/15 02:20:52;;;;;;;15.50;5.22;;;7.40;99.90;;;;;;4988783;28;20027;-64
2022/04/15 02:23:18;;;;;;;10.20;3.55;;;7.50;99.90;;;;;;4991056;28;20022;-63
2022/04/15 02:25:43;;;;;;;8.52;3.30;;;7.40;99.90;;;;;;4991466;28;20022;-64
2022/04/15 02:28:09;;;;;;;13.30;3.50;;;7.20;99.90;;;;;;4989732;28;20517;-63
2022/04/15 02:30:34;;;;;;;9.43;4.13;;;7.10;99.90;;;;;;4991532;28;20129;-63
2022/04/15 02:33:00;;;;;;;9.52;4.43;;;7.10;99.90;;;;;;4992655;28;20026;-63
2022/04/15 02:35:26;;;;;;;16.02;4.47;;;7.10;99.90;;;;;;4989523;28;20018;-63
2022/04/15 02:37:51;;;;;;;9.15;3.17;;;7.00;99.90;;;;;;4992528;28;20030;-63
2022/04/15 02:40:17;;;;;;;8.73;4.00;;;7.00;99.90;;;;;;4992378;28;20145;-63
2022/04/15 02:42:43;;;;;;;13.45;2.72;;;6.90;99.90;;;;;;4989348;28;20482;-63
2022/04/15 02:45:09;;;;;;;8.52;3.85;;;6.80;99.90;;;;;;4991868;28;20045;-63
2022/04/15 02:47:35;;;;;;;10.40;3.92;;;6.70;99.90;;;;;;4987275;28;20466;-63
2022/04/15 02:50:02;;;;;;;15.02;4.57;;;6.70;99.90;;;;;;4992159;28;20037;-63
2022/04/15 02:52:27;;;;;;;8.82;3.85;;;6.60;99.90;;;;;;4988848;28;20097;-63
2022/04/15 02:54:54;;;;;;;11.23;3.80;;;6.60;99.90;;;;;;4992251;28;20105;-63
2022/04/15 02:57:19;;;;;;;11.88;4.07;;;6.60;99.90;;;;;;4989414;28;20022;-63
2022/04/15 02:59:45;;;;;;;9.10;3.10;;;6.60;99.90;;;;;;4989055;28;20040;-63
2022/04/15 03:02:10;;;;;;;10.27;4.05;;;6.60;99.90;;;;;;4986148;28;20022;-63
2022/04/15 03:04:36;;;;;;;12.93;4.53;;;6.60;99.90;;;;;;4991628;28;20023;-63
2022/04/15 03:07:02;;;;;;;11.23;3.72;;;6.50;99.90;;;;;;4991620;28;20050;-64
2022/04/15 03:09:28;;;;;;;11.00;3.72;;;6.50;99.90;;;;;;4992565;28;20454;-64
2022/04/15 03:11:53;;;;;;;10.77;3.88;;;6.40;99.90;;;;;;4991830;28;20048;-64
2022/04/15 03:14:19;;;;;;;11.25;3.55;;;6.70;99.90;;;;;;4992106;28;20028;-64
2022/04/15 03:16:44;;;;;;;9.02;4.18;;;6.50;99.90;;;;;;4992081;28;20030;-63
2022/04/15 03:19:10;;;;;;;10.05;3.83;;;6.40;99.90;;;;;;4986107;28;20019;-63
2022/04/15 03:21:36;;;;;;;9.07;3.58;;;6.40;99.90;;;;;;4992363;28;20133;-63
2022/04/15 03:24:02;;;;;;;9.60;3.47;;;6.30;99.90;;;;;;4991430;28;20018;-63
2022/04/15 03:26:28;;;;;;;8.93;3.97;;;6.20;99.90;;;;;;4988102;28;20092;-63
2022/04/15 03:28:54;;;;;;;8.80;3.22;;;6.00;99.90;;;;;;4989443;28;20046;-63
2022/04/15 03:31:20;;;;;;;9.63;2.95;;;6.00;99.90;;;;;;4991844;28;20102;-63
2022/04/15 03:33:46;;;;;;;10.68;3.50;;;6.00;99.90;;;;;;4991355;28;20102;-64
2022/04/15 03:36:11;;;;;;;9.77;3.47;;;6.10;99.90;;;;;;4990610;28;20085;-64
2022/04/15 03:38:37;;;;;;;7.57;3.15;;;6.20;99.90;;;;;;4991046;28;20056;-64
2022/04/15 03:41:03;;;;;;;9.45;3.25;;;6.10;99.90;;;;;;4991465;28;20026;-64
2022/04/15 03:43:29;;;;;;;9.88;3.33;;;6.00;99.90;;;;;;4990555;28;20058;-63
2022/04/15 03:45:55;;;;;;;10.05;3.95;;;5.90;99.90;;;;;;4991098;28;20382;-63
2022/04/15 03:48:21;;;;;;;8.82;3.20;;;6.00;99.90;;;;;;4992120;28;20023;-63
2022/04/15 03:50:46;;;;;;;8.52;3.50;;;5.80;99.90;;;;;;4989903;28;20057;-63
2022/04/15 03:53:12;;;;;;;8.27;4.00;;;5.90;99.90;;;;;;4987837;28;20023;-63
2022/04/15 03:55:38;;;;;;;11.80;3.47;;;5.70;99.90;;;;;;4989475;28;20851;-63
2022/04/15 03:58:03;;;;;;;11.93;2.97;;;5.60;99.90;;;;;;4988776;28;20026;-63
2022/04/15 04:00:29;;;;;;;15.93;3.50;;;5.50;99.90;;;;;;4991515;28;20034;-63
2022/04/15 04:02:55;;;;;;;11.40;4.10;;;5.80;99.90;;;;;;4990726;28;20022;-63
2022/04/15 04:05:24;;;;;;;10.20;3.95;;;5.70;99.90;;;;;;4982522;28;20089;-63
2022/04/15 04:07:50;;;;;;;13.07;4.83;;;5.60;99.90;;;;;;4991243;28;20060;-63
2022/04/15 04:10:16;;;;;;;7.13;3.33;;;5.60;99.90;;;;;;4990340;28;20108;-64
2022/04/15 04:12:43;;;;;;;13.05;3.42;;;5.60;99.90;;;;;;4989964;28;20113;-65
2022/04/15 04:15:10;;;;;;;12.02;3.15;;;5.60;99.90;;;;;;4985215;28;20039;-63
2022/04/15 04:17:36;;;;;;;8.65;3.63;;;5.60;99.90;;;;;;5006023;28;20038;-63
2022/04/15 04:20:04;;;;;;;13.20;3.10;;;5.60;99.90;;;;;;4990711;28;20058;-63
2022/04/15 04:22:31;;;;;;;15.35;4.90;;;5.90;99.90;;;;;;4987256;28;20491;-63
2022/04/15 04:24:57;;;;;;;9.85;3.90;;;6.00;99.90;;;;;;4990111;28;20089;-63
2022/04/15 04:27:23;;;;;;;12.48;3.90;;;6.30;99.90;;;;;;4989141;28;20030;-63
2022/04/15 04:29:48;;;;;;;11.73;4.53;;;6.50;99.90;;;;;;4989759;28;20097;-63
2022/04/15 04:32:15;;;;;;;11.93;4.00;;;6.80;99.90;;;;;;4989465;28;20386;-63
2022/04/15 04:34:41;;;;;;;20.92;3.83;;;7.00;99.90;;;;;;4984396;28;20491;-63
2022/04/15 04:37:06;;;;;;;17.35;5.45;;;7.20;99.90;;;;;;4988265;28;20046;-63
2022/04/15 04:39:32;;;;;;;16.67;6.15;;;7.40;99.90;;;;;;4988782;28;20470;-63
2022/04/15 04:41:58;;;;;;;13.48;5.32;;;7.40;99.90;;;;;;4986727;28;20026;-63
2022/04/15 04:44:24;;;;;;;14.88;4.72;;;7.50;99.90;;;;;;4989326;28;20019;-63
2022/04/15 04:46:50;;;;;;;18.33;6.30;;;7.60;99.90;;;;;;4992263;28;20096;-63
2022/04/15 04:49:15;;;;;;;18.63;8.38;;;7.60;99.90;;;;;;4993270;28;20105;-63
2022/04/15 04:51:41;;;;;;;13.65;5.10;;;7.60;99.90;;;;;;4993905;28;20025;-63
2022/04/15 04:54:07;;;;;;;18.25;6.10;;;7.70;99.90;;;;;;4989379;28;20037;-63
2022/04/15 04:56:32;;;;;;;24.20;7.38;;;7.70;99.90;;;;;;4992277;28;20414;-63
2022/04/15 04:58:58;;;;;;;16.30;6.72;;;7.70;99.90;;;;;;4988302;28;20026;-63
2022/04/15 05:01:24;;;;;;;16.67;6.43;;;7.60;99.90;;;;;;4991515;28;20113;-63
2022/04/15 05:03:49;;;;;;;17.15;6.82;;;7.50;99.90;;;;;;4994510;28;20129;-63
2022/04/15 05:06:15;;;;;;;17.98;8.38;;;7.60;99.90;;;;;;4990587;28;20513;-63
2022/04/15 05:08:40;;;;;;;19.95;6.65;;;7.60;99.90;;;;;;4992965;28;20117;-62
2022/04/15 05:11:06;;;;;;;19.27;6.70;;;7.70;99.90;;;;;;4993464;28;20034;-62
2022/04/15 05:13:31;;;;;;;17.48;6.85;;;7.60;99.90;;;;;;4992193;28;20034;-63
2022/04/15 05:15:57;;;;;;;25.65;7.90;;;7.60;99.90;;;;;;4992797;28;20382;-63
2022/04/15 05:18:23;;;;;;;21.65;5.93;;;7.70;99.90;;;;;;4993845;28;20509;-63
2022/04/15 05:20:48;;;;;;;28.15;8.45;;;7.70;99.90;;;;;;4992686;28;20023;-62
2022/04/15 05:23:14;;;;;;;28.08;9.00;;;7.70;99.90;;;;;;4991329;28;20577;-62
2022/04/15 05:25:39;;;;;;;16.45;6.68;;;7.60;99.90;;;;;;4991966;28;20041;-62
2022/04/15 05:28:05;;;;;;;25.83;7.00;;;7.70;99.90;;;;;;4990511;28;20139;-62
2022/04/15 05:30:31;;;;;;;28.83;7.65;;;7.70;99.90;;;;;;4990791;28;20050;-62
2022/04/15 05:32:57;;;;;;;32.58;10.98;;;7.90;99.90;;;;;;4993256;28;20045;-62
2022/04/15 05:35:23;;;;;;;28.52;10.38;;;7.70;99.90;;;;;;4983779;28;20019;-63
2022/04/15 05:37:48;;;;;;;26.67;8.32;;;7.70;99.90;;;;;;4985698;28;20487;-63
2022/04/15 05:40:14;;;;;;;28.13;9.38;;;7.90;99.90;;;;;;4986446;28;20097;-63
2022/04/15 05:42:39;;;;;;;27.70;8.30;;;7.80;99.90;;;;;;4986059;28;20026;-63
2022/04/15 05:45:06;;;;;;;39.38;11.75;;;7.80;99.90;;;;;;4992770;28;20034;-63
2022/04/15 05:47:31;;;;;;;31.25;8.70;;;7.80;99.90;;;;;;4993327;28;20050;-63
2022/04/15 05:49:57;;;;;;;25.77;8.15;;;7.80;99.90;;;;;;4992757;28;20070;-63
2022/04/15 05:52:22;;;;;;;26.08;8.77;;;7.70;99.90;;;;;;4992469;28;20022;-62
2022/04/15 05:54:48;;;;;;;17.10;7.13;;;7.70;99.90;;;;;;4992846;28;20042;-62
2022/04/15 05:57:14;;;;;;;15.90;5.53;;;7.80;99.90;;;;;;4982990;28;20029;-62
2022/04/15 05:59:41;;;;;;;19.08;6.65;;;7.90;99.90;;;;;;4986445;28;20426;-63
2022/04/15 06:02:07;;;;;;;15.75;4.75;;;7.90;99.90;;;;;;4990302;28;20475;-62
2022/04/15 06:04:32;;;;;;;14.55;5.10;;;8.10;99.90;;;;;;4990289;28;20027;-62
2022/04/15 06:06:58;;;;;;;26.38;7.28;;;8.10;99.90;;;;;;4981347;28;22011;-62
2022/04/15 06:09:25;;;;;;;15.02;5.72;;;7.90;99.90;;;;;;4991652;28;20018;-63
2022/04/15 06:11:53;;;;;;;20.95;6.18;;;8.00;99.90;;;;;;5006153;28;20057;-63
2022/04/15 06:14:22;;;;;;;20.65;6.78;;;7.90;99.90;;;;;;4989191;28;20022;-63
2022/04/15 06:16:49;;;;;;;17.48;5.80;;;8.00;99.90;;;;;;4991241;28;20025;-62
2022/04/15 06:19:15;;;;;;;11.48;4.95;;;8.00;99.90;;;;;;4991574;28;20031;-63
2022/04/15 06:21:41;;;;;;;17.20;6.07;;;8.10;99.90;;;;;;4992377;28;20023;-63
2022/04/15 06:24:08;;;;;;;15.07;5.10;;;7.90;99.90;;;;;;4991590;28;20638;-63
2022/04/15 06:26:35;;;;;;;8.13;3.60;;;7.90;99.90;;;;;;4990518;28;20015;-63
2022/04/15 06:29:01;;;;;;;11.20;5.10;;;7.90;99.90;;;;;;4991189;28;20046;-63
2022/04/15 06:31:26;;;;;;;15.75;5.32;;;8.00;99.90;;;;;;4991685;28;20465;-63
2022/04/15 06:33:52;;;;;;;12.80;5.38;;;7.90;99.90;;;;;;4991688;28;20018;-63
2022/04/15 06:36:19;;;;;;;18.65;4.53;;;7.90;99.90;;;;;;4990229;28;20394;-63
2022/04/15 06:38:46;;;;;;;13.68;4.55;;;8.00;99.90;;;;;;4988103;28;20486;-63
2022/04/15 06:41:11;;;;;;;15.40;5.78;;;8.00;99.90;;;;;;4988927;28;20029;-63
2022/04/15 06:43:37;;;;;;;10.43;4.22;;;7.90;99.90;;;;;;4990602;28;20494;-63
2022/04/15 06:46:03;;;;;;;17.58;5.07;;;7.90;99.90;;;;;;4988592;28;20035;-62
2022/04/15 06:48:29;;;;;;;8.57;4.47;;;7.90;99.90;;;;;;4986626;28;20115;-63
2022/04/15 06:50:55;;;;;;;11.27;4.03;;;8.00;99.90;;;;;;4990176;28;20019;-63
2022/04/15 06:53:24;;;;;;;10.43;4.00;;;8.20;99.90;;;;;;4986777;28;20453;-63
2022/04/15 06:55:50;;;;;;;9.00;3.67;;;8.40;99.90;;;;;;4989838;28;20034;-63
2022/04/15 06:58:17;;;;;;;10.20;3.92;;;8.40;99.90;;;;;;4983873;28;20026;-62
2022/04/15 07:00:43;;;;;;;14.45;4.78;;;8.30;99.90;;;;;;4989728;28;20030;-62
2022/04/15 07:03:12;;;;;;;13.20;4.05;;;8.30;99.90;;;;;;4989037;28;20056;-63
2022/04/15 07:05:37;;;;;;;12.88;3.90;;;8.10;99.90;;;;;;4993808;28;20026;-63
2022/04/15 07:08:03;;;;;;;13.55;4.63;;;8.30;99.90;;;;;;4986944;28;20172;-63
2022/04/15 07:10:29;;;;;;;14.75;4.35;;;8.40;99.90;;;;;;4985477;28;20422;-63
2022/04/15 07:12:56;;;;;;;13.38;5.00;;;8.40;99.90;;;;;;5006169;28;20026;-63
2022/04/15 07:15:23;;;;;;;15.55;4.47;;;8.10;99.90;;;;;;4989233;28;20052;-64
2022/04/15 07:17:49;;;;;;;12.90;4.28;;;8.10;99.90;;;;;;4990139;28;20026;-63
2022/04/15 07:20:15;;;;;;;10.48;3.60;;;8.20;99.90;;;;;;4991157;28;20045;-63
2022/04/15 07:22:40;;;;;;;10.68;4.03;;;8.50;99.90;;;;;;4988587;28;20022;-63
2022/04/15 07:25:06;;;;;;;9.73;4.75;;;8.40;99.90;;;;;;4991305;28;20030;-63
2022/04/15 07:27:32;;;;;;;9.35;4.13;;;8.50;99.90;;;;;;4989370;28;20022;-64
2022/04/15 07:29:57;;;;;;;12.43;4.18;;;8.70;99.90;;;;;;4991356;28;20054;-65
2022/04/15 07:32:25;;;;;;;8.30;3.45;;;8.70;99.90;;;;;;4990611;28;20025;-64
2022/04/15 07:34:51;;;;;;;8.95;3.65;;;8.90;99.90;;;;;;4981925;28;20034;-64
2022/04/15 07:37:16;;;;;;;11.48;4.20;;;9.10;99.90;;;;;;4988287;28;20034;-64
2022/04/15 07:39:42;;;;;;;10.63;3.58;;;9.00;99.90;;;;;;4990540;28;20037;-64
2022/04/15 07:42:08;;;;;;;16.98;3.92;;;9.40;99.90;;;;;;4991451;28;20041;-63
2022/04/15 07:44:34;;;;;;;7.38;2.35;;;9.70;99.90;;;;;;4987517;28;20026;-64
2022/04/15 07:46:59;;;;;;;10.23;3.45;;;9.90;99.90;;;;;;4987679;28;20030;-64
2022/04/15 07:49:25;;;;;;;6.68;2.58;;;10.10;99.90;;;;;;4990334;28;20428;-64
2022/04/15 07:51:51;;;;;;;7.97;2.85;;;10.00;99.90;;;;;;4986941;28;20359;-64
2022/04/15 07:54:16;;;;;;;7.95;2.47;;;10.10;99.90;;;;;;4992194;28;20022;-64
2022/04/15 07:56:42;;;;;;;7.75;2.10;;;9.90;99.90;;;;;;4988443;28;20054;-64
2022/04/15 07:59:07;;;;;;;6.20;2.05;;;10.00;99.90;;;;;;4987816;28;20034;-64
2022/04/15 08:01:34;;;;;;;6.97;2.28;;;9.90;99.90;;;;;;4985697;28;20026;-63
2022/04/15 08:04:00;;;;;;;8.48;2.45;;;9.60;99.90;;;;;;4989675;28;20034;-63
2022/04/15 08:06:28;;;;;;;3.65;1.63;;;9.50;99.90;;;;;;4989115;28;20077;-63
2022/04/15 08:08:55;;;;;;;6.75;2.47;;;9.40;99.90;;;;;;4990335;28;20018;-63
2022/04/15 08:11:22;;;;;;;5.15;1.90;;;9.50;99.90;;;;;;4989152;28;20597;-63
2022/04/15 08:13:49;;;;;;;6.72;2.33;;;9.70;99.90;;;;;;4987832;28;20371;-64
2022/04/15 08:16:15;;;;;;;5.88;2.33;;;9.70;99.90;;;;;;4989924;28;20026;-63
2022/04/15 08:18:41;;;;;;;4.88;1.95;;;9.40;99.90;;;;;;4990618;28;20041;-63
2022/04/15 08:21:06;;;;;;;9.05;2.95;;;9.10;99.90;;;;;;4986246;28;20027;-63
2022/04/15 08:23:32;;;;;;;11.52;3.90;;;9.10;99.90;;;;;;4983873;28;20030;-63
2022/04/15 08:25:58;;;;;;;11.25;4.03;;;9.10;99.90;;;;;;4989237;28;20057;-63
2022/04/15 08:28:23;;;;;;;10.88;3.70;;;8.90;99.90;;;;;;4988563;28;20029;-63
2022/04/15 08:30:49;;;;;;;10.75;3.88;;;9.10;99.90;;;;;;4990164;28;20050;-63
2022/04/15 08:33:16;;;;;;;9.65;3.50;;;9.10;99.90;;;;;;4980800;28;20050;-63
2022/04/15 08:35:42;;;;;;;9.55;3.78;;;9.20;99.90;;;;;;4992555;28;20114;-63
2022/04/15 08:38:08;;;;;;;16.05;4.97;;;9.50;99.90;;;;;;4983356;28;20082;-63
2022/04/15 08:40:35;;;;;;;18.40;5.40;;;9.20;99.90;;;;;;4989485;28;20097;-63
2022/04/15 08:43:03;;;;;;;17.88;6.85;;;9.20;99.90;;;;;;4990024;28;20023;-63
2022/04/15 08:45:30;;;;;;;24.92;7.55;;;8.90;99.90;;;;;;4986014;28;20050;-63
2022/04/15 08:48:00;;;;;;;19.60;6.43;;;9.00;99.90;;;;;;4990114;28;20030;-63
2022/04/15 08:50:30;;;;;;;15.65;7.22;;;8.90;99.90;;;;;;4982752;28;20389;-63
2022/04/15 08:52:57;;;;;;;17.92;6.60;;;8.70;99.90;;;;;;4986345;28;20019;-63
2022/04/15 08:55:24;;;;;;;23.65;8.98;;;8.80;99.90;;;;;;4988699;28;20486;-63
2022/04/15 08:57:52;;;;;;;19.83;8.30;;;8.80;99.90;;;;;;4988879;28;20102;-63
2022/04/15 09:00:21;;;;;;;21.90;8.77;;;8.70;99.90;;;;;;4984251;28;20036;-64
2022/04/15 09:02:49;;;;;;;24.13;7.95;;;8.70;99.90;;;;;;4990263;28;20034;-63
2022/04/15 09:05:20;;;;;;;23.30;8.43;;;8.80;99.90;;;;;;4989959;28;20030;-63
2022/04/15 09:07:46;;;;;;;14.93;5.70;;;8.90;99.90;;;;;;4986071;28;20045;-63
2022/04/15 09:10:12;;;;;;;16.88;5.43;;;9.00;99.90;;;;;;4988656;28;20027;-63
2022/04/15 09:12:40;;;;;;;13.90;5.10;;;9.10;99.90;;;;;;4987955;28;20030;-63
2022/04/15 09:15:06;;;;;;;15.63;4.13;;;9.30;99.90;;;;;;4987113;28;20019;-63
2022/04/15 09:17:33;;;;;;;6.45;2.80;;;9.50;99.90;;;;;;4986827;28;20023;-63
2022/04/15 09:20:00;;;;;;;7.75;3.42;;;9.60;99.90;;;;;;4990438;28;20030;-63
2022/04/15 09:22:26;;;;;;;8.35;3.50;;;9.50;99.90;;;;;;4989501;28;20491;-64
2022/04/15 09:24:52;;;;;;;6.68;2.22;;;9.60;99.90;;;;;;4990518;28;20093;-64
2022/04/15 09:27:19;;;;;;;9.10;2.20;;;9.50;99.90;;;;;;4979718;28;20117;-63
2022/04/15 09:29:46;;;;;;;8.65;2.95;;;9.30;99.90;;;;;;4989251;28;20069;-64
2022/04/15 09:32:16;;;;;;;8.90;2.72;;;9.40;99.90;;;;;;4987253;28;20027;-64
2022/04/15 09:35:00;;;;;;;8.38;2.72;;;9.50;99.90;;;;;;4994086;28;20065;-63
2022/04/15 09:37:30;;;;;;;7.55;2.53;;;9.60;99.90;;;;;;4989723;28;20383;-63
2022/04/15 09:40:07;;;;;;;8.40;2.47;;;9.60;99.90;;;;;;4993860;28;20027;-64
2022/04/15 09:42:36;;;;;;;9.60;2.97;;;9.70;99.90;;;;;;4990090;28;20131;-64
2022/04/15 09:45:16;;;;;;;6.88;2.28;;;9.20;99.90;;;;;;4993464;28;20027;-64
2022/04/15 09:47:42;;;;;;;;;;;9.40;99.90;;;;;;4991832;28;20038;-64
2022/04/15 09:50:22;;;;;;;13.57;2.80;;;9.50;99.90;;;;;;4991404;28;19913;-63
2022/04/15 09:52:49;;;;;;;6.55;2.92;;;9.40;99.90;;;;;;4991765;28;20026;-63
2022/04/15 09:55:16;;;;;;;9.98;3.42;;;9.40;99.90;;;;;;4993004;28;20053;-63
2022/04/15 09:57:44;;;;;;;8.57;3.08;;;9.30;99.90;;;;;;4991942;28;20029;-64
2022/04/15 10:00:11;;;;;;;9.35;2.95;;;9.50;99.90;;;;;;4987958;28;20401;-64
2022/04/15 10:02:42;;;;;;;8.90;3.38;;;9.40;99.90;;;;;;4992957;28;20084;-67
2022/04/15 10:05:08;;;;;;;;;;;9.40;99.90;;;;;;4990382;28;20367;-67
2022/04/15 10:07:35;;;;;;;9.65;2.75;;;9.50;99.90;;;;;;4988607;28;19928;-65
2022/04/15 10:10:02;;;;;;;12.15;3.17;;;9.90;99.90;;;;;;4990985;28;20049;-65
2022/04/15 10:12:29;;;;;;;10.80;3.60;;;9.60;99.90;;;;;;4985622;28;20023;-65
2022/04/15 10:14:55;;;;;;;7.90;2.70;;;9.90;99.90;;;;;;4993282;28;20026;-65
2022/04/15 10:17:23;;;;;;;7.47;2.65;;;9.80;99.90;;;;;;4988166;28;20478;-65
2022/04/15 10:19:49;;;;;;;9.43;3.33;;;10.20;99.90;;;;;;4991757;28;20068;-65
2022/04/15 10:22:16;;;;;;;9.90;3.28;;;9.90;99.90;;;;;;4988580;28;20046;-65
2022/04/15 10:24:41;;;;;;;9.02;3.30;;;10.40;99.90;;;;;;4990710;28;20014;-65
2022/04/15 10:27:10;;;;;;;6.32;2.28;;;10.40;99.90;;;;;;4990071;28;20080;-65
2022/04/15 10:29:36;;;;;;;6.13;2.72;;;10.40;99.90;;;;;;4987407;28;20121;-65
2022/04/15 10:32:13;;;;;;;7.32;2.80;;;10.10;99.90;;;;;;4991026;28;20105;-64
2022/04/15 10:34:46;;;;;;;8.63;3.13;;;10.30;99.90;;;;;;4991642;28;20080;-64
2022/04/15 10:37:12;;;;;;;9.63;3.05;;;10.20;99.90;;;;;;4990982;28;20014;-64
2022/04/15 10:39:47;;;;;;;6.95;2.45;;;10.40;99.90;;;;;;4991697;28;20084;-64
2022/04/15 10:42:20;;;;;;;8.02;2.78;;;10.90;99.90;;;;;;4988952;28;20029;-64
2022/04/15 10:44:47;;;;;;;10.77;2.97;;;10.40;99.90;;;;;;4984395;28;20421;-64
2022/04/15 10:47:27;;;;;;;5.78;2.50;;;10.40;99.90;;;;;;4990966;28;20473;-64
2022/04/15 10:49:59;;;;;;;6.00;2.25;;;10.10;99.90;;;;;;4991260;28;20472;-64
2022/04/15 10:52:26;;;;;;;6.68;2.13;;;9.90;99.90;;;;;;4985772;28;20026;-64
2022/04/15 10:55:06;;;;;;;7.63;2.50;;;10.70;99.90;;;;;;4986117;28;20030;-64
2022/04/15 10:57:33;;;;;;;6.10;2.30;;;11.40;99.90;;;;;;4988893;28;20041;-64
2022/04/15 11:02:44;;;;;;;7.78;2.63;;;11.50;99.90;;;;;;4989406;28;20042;-64
2022/04/15 11:05:35;;;;;;;4.82;2.10;;;11.60;99.90;;;;;;4987304;28;20041;-64
2022/04/15 11:08:10;;;;;;;7.38;2.17;;;12.00;99.90;;;;;;4985411;28;20557;-64
2022/04/15 11:10:42;;;;;;;4.30;1.60;;;12.90;99.90;;;;;;4990339;28;20045;-64
2022/04/15 11:13:09;;;;;;;6.15;2.13;;;12.20;99.90;;;;;;4987701;28;20518;-64
2022/04/15 11:16:04;;;;;;;7.45;2.25;;;12.30;99.90;;;;;;4987035;28;20030;-64
2022/04/15 11:18:53;;;;;;;5.90;2.03;;;12.00;99.90;;;;;;4987662;28;20042;-64
2022/04/15 11:21:33;;;;;;;7.88;2.10;;;12.40;99.90;;;;;;4988020;28;20105;-64
2022/04/15 11:24:12;;;;;;;4.03;1.63;;;12.40;99.90;;;;;;4990481;28;20037;-64
2022/04/15 11:26:43;;;;;;;4.82;1.80;;;12.20;99.90;;;;;;4984746;28;20161;-64
2022/04/15 11:29:11;;;;;;;7.30;2.22;;;11.60;99.90;;;;;;4990268;28;20134;-64
2022/04/15 11:31:46;;;;;;;6.50;2.50;;;12.20;99.90;;;;;;4987854;28;20030;-64
2022/04/15 11:34:17;;;;;;;6.20;2.40;;;11.90;99.90;;;;;;4987400;28;20595;-64
2022/04/15 11:36:50;;;;;;;7.10;2.20;;;11.50;99.90;;;;;;4988238;28;20018;-63
2022/04/15 11:39:21;;;;;;;8.07;2.55;;;11.50;99.90;;;;;;4984293;28;20499;-63
2022/04/15 11:41:52;;;;;;;5.03;1.90;;;12.00;99.90;;;;;;4979998;28;20390;-63
2022/04/15 11:44:19;;;;;;;6.32;2.03;;;13.10;99.90;;;;;;4987309;28;20018;-64
2022/04/15 11:46:52;;;;;;;7.20;2.13;;;13.60;99.90;;;;;;4989696;28;20705;-65
2022/04/15 11:49:21;;;;;;;5.30;1.60;;;12.80;99.90;;;;;;4981478;28;20026;-64
2022/04/15 11:51:52;;;;;;;6.90;2.05;;;12.50;99.90;;;;;;4989782;28;20395;-64
2022/04/15 11:54:31;;;;;;;8.68;2.38;;;12.20;99.90;;;;;;4987283;28;20544;-64
2022/04/15 11:56:58;;;;;;;6.53;2.05;;;11.50;99.90;;;;;;4980413;28;20029;-64
2022/04/15 11:59:25;;;;;;;6.97;2.33;;;12.00;99.90;;;;;;4983345;28;20035;-64
2022/04/15 12:01:53;;;;;;;5.28;1.73;;;12.10;99.90;;;;;;4983897;28;20037;-64
2022/04/15 12:04:19;;;;;;;7.63;2.40;;;12.40;99.90;;;;;;4985296;28;20069;-64
2022/04/15 12:06:45;;;;;;;9.65;1.92;;;12.60;99.90;;;;;;4985418;28;20398;-64
2022/04/15 12:09:12;;;;;;;8.88;2.47;;;12.30;99.90;;;;;;4986252;28;20022;-64
2022/04/15 12:11:39;;;;;;;7.82;2.30;;;12.70;99.90;;;;;;4998840;28;20565;-64
2022/04/15 12:14:08;;;;;;;7.00;2.10;;;12.30;99.90;;;;;;4986177;28;20742;-64
2022/04/15 12:16:36;;;;;;;5.93;2.20;;;13.00;99.90;;;;;;4984482;28;20022;-69
2022/04/15 12:19:03;;;;;;;5.97;2.05;;;13.00;99.90;;;;;;4987817;28;20153;-64
2022/04/15 12:21:31;;;;;;;6.38;2.22;;;12.90;99.90;;;;;;4985601;28;20716;-64
2022/04/15 12:24:22;;;;;;;5.22;1.67;;;13.10;99.90;;;;;;4985857;28;20056;-65
2022/04/15 12:26:52;;;;;;;7.70;2.50;;;13.30;99.90;;;;;;4985685;28;20027;-65
2022/04/15 12:32:25;;;;;;;7.80;2.20;;;13.60;99.90;;;;;;4987010;28;20053;-65
2022/04/15 12:35:10;;;;;;;7.50;2.72;;;13.40;99.90;;;;;;4987672;28;20101;-65
2022/04/15 12:37:42;;;;;;;7.43;2.17;;;12.60;99.90;;;;;;4983793;28;20018;-64
2022/04/15 12:40:14;;;;;;;7.32;2.53;;;12.80;99.90;;;;;;4983991;28;20026;-64
2022/04/15 12:42:42;;;;;;;7.78;2.40;;;12.10;99.90;;;;;;4986334;28;20128;-64
2022/04/15 12:45:09;;;;;;;8.32;2.47;;;12.50;99.90;;;;;;4987460;28;20026;-65
2022/04/15 12:47:37;;;;;;;7.68;2.45;;;12.30;99.90;;;;;;4985975;28;20038;-64
2022/04/15 12:50:20;;;;;;;6.13;2.15;;;12.50;99.90;;;;;;4986029;28;20058;-64
2022/04/15 12:52:48;;;;;;;6.03;2.17;;;13.30;99.90;;;;;;4985848;28;20060;-64
2022/04/15 12:55:23;;;;;;;6.80;2.30;;;14.10;99.90;;;;;;4987967;28;20018;-65
2022/04/15 12:57:49;;;;;;;6.18;1.98;;;13.60;99.90;;;;;;4984917;28;20054;-64